Flight Track Log - Related Links

Times and Time Zones

All times are in EDT time to prevent confusion due to time zone crossing. See the N589H flight status page for this flight to view local times or setup timezone preferences in your user account.

Time Position Orientation Groundspeed Altitude Reporting Facility
EDT Latitude Longitude Course Direction KTS MPH feet Rate Location/Type
Sun 08:55:45 PM 28.5333 -81.3667 240° Southwest 173 199 900  Level Orlando TRACON
Sun 08:56:39 PM 28.5167 -81.4000 240° Southwest 169 194 2,500 1,789 Climbing Orlando TRACON
Sun 08:57:39 PM 28.5167 -81.4500 270° West 171 197 4,300 1,826 Climbing Orlando TRACON
Sun 08:58:34 PM 28.5500 -81.4667 336° Northwest 192 221 6,000 1,774 Climbing Orlando TRACON
Sun 08:59:34 PM 28.6167 -81.4667 360° North 200 230 7,700 1,800 Climbing Orlando TRACON
Sun 09:00:34 PM 28.6667 -81.4667 360° North 206 237 9,600 1,457 Climbing Orlando TRACON
Sun 09:02:27 PM 28.7639 -81.4692 359° North 200 230 11,900 798 Climbing Jacksonville Center
Sun 09:03:27 PM 28.8347 -81.4564 North 225 259 11,900  Level Jacksonville Center
Sun 09:04:27 PM 28.9075 -81.4244 21° North 250 288 11,900 150 Level Jacksonville Center
Sun 09:05:27 PM 28.9803 -81.3972 18° North 269 310 12,200 500 Climbing Jacksonville Center
Sun 09:06:27 PM 29.0533 -81.4033 356° North 263 303 12,900 700 Climbing Jacksonville Center
Sun 09:07:27 PM 29.1286 -81.4069 358° North 257 296 13,600 850 Climbing Jacksonville Center
Sun 09:08:27 PM 29.2017 -81.4106 358° North 257 296 14,600 1,000 Climbing Jacksonville Center
Sun 09:09:27 PM 29.2747 -81.4119 359° North 257 296 15,600 1,300 Climbing Jacksonville Center
Sun 09:10:27 PM 29.3394 -81.4203 354° North 252 290 17,200 1,600 Climbing Jacksonville Center
Sun 09:11:27 PM 29.4064 -81.4242 357° North 246 283 18,800 1,600 Climbing Jacksonville Center
Sun 09:12:27 PM 29.4689 -81.4256 359° North 231 266 20,400 1,500 Climbing Jacksonville Center
Sun 09:13:27 PM 29.5275 -81.4294 357° North 221 254 21,800 1,200 Climbing Jacksonville Center
Sun 09:14:27 PM 29.5900 -81.4333 357° North 216 249 22,800 1,000 Climbing Jacksonville Center
Sun 09:15:27 PM 29.6592 -81.4369 357° North 227 261 23,800 1,000 Climbing Jacksonville Center
Sun 09:16:27 PM 29.7281 -81.4408 357° North 238 274 24,800 1,000 Climbing Jacksonville Center
Sun 09:17:27 PM 29.8031 -81.4444 358° North 249 287 25,800 1,000 Climbing Jacksonville Center
Sun 09:18:27 PM 29.8742 -81.4483 357° North 256 295 26,800 1,050 Climbing Jacksonville Center
Sun 09:19:27 PM 29.9472 -81.4519 358° North 256 295 27,900 1,050 Climbing Jacksonville Center
Sun 09:20:27 PM 30.0161 -81.4556 357° North 256 295 28,900 1,000 Climbing Jacksonville Center
Sun 09:21:27 PM 30.0853 -81.4569 359° North 251 289 29,900 750 Climbing Jacksonville Center
Sun 09:22:27 PM 30.1519 -81.4608 357° North 251 289 30,400 500 Climbing Jacksonville Center
Sun 09:23:27 PM 30.2231 -81.4669 356° North 251 289 30,900 300 Climbing Jacksonville Center
Sun 09:24:27 PM 30.2983 -81.4708 357° North 257 296 31,000 50 Climbing Jacksonville Center
Sun 09:25:27 PM 30.3775 -81.4744 358° North 269 310 31,000  Level Jacksonville Center
Sun 09:26:27 PM 30.4592 -81.4781 358° North 280 322 31,000  Level Jacksonville Center
Sun 09:27:27 PM 30.5406 -81.4839 356° North 290 334 31,000  Level Jacksonville Center
Sun 09:28:27 PM 30.6200 -81.4878 358° North 290 334 31,000 150 Level Jacksonville Center
Sun 09:29:27 PM 30.6994 -81.4936 356° North 290 334 31,300 400 Climbing Jacksonville Center
Sun 09:30:27 PM 30.7789 -81.4975 358° North 290 334 31,800 500 Climbing Jacksonville Center
Sun 09:31:27 PM 30.8561 -81.5011 358° North 284 327 32,300 500 Climbing Jacksonville Center
Sun 09:32:27 PM 30.9314 -81.5072 356° North 279 321 32,800 500 Climbing Jacksonville Center
Sun 09:33:27 PM 31.0064 -81.5086 359° North 273 314 33,300 500 Climbing Jacksonville Center
Sun 09:34:27 PM 31.0817 -81.5147 356° North 273 314 33,800 450 Climbing Jacksonville Center
Sun 09:35:27 PM 31.1569 -81.5208 356° North 273 314 34,200 450 Climbing Jacksonville Center
Sun 09:36:27 PM 31.2281 -81.5222 359° North 273 314 34,700 400 Climbing Jacksonville Center
Sun 09:37:27 PM 31.3031 -81.5286 356° North 268 308 35,000 150 Climbing Jacksonville Center
Sun 09:38:27 PM 31.3867 -81.5297 359° North 276 318 35,000  Level Jacksonville Center
Sun 09:39:27 PM 31.4639 -81.5358 356° North 276 318 35,000  Level Jacksonville Center
Sun 09:40:27 PM 31.5372 -81.5397 357° North 276 318 35,000  Level Jacksonville Center
Sun 09:41:27 PM 31.6228 -81.5458 357° North 276 318 35,000  Level Jacksonville Center
Sun 09:42:27 PM 31.6897 -81.5497 357° North 266 306 35,000  Level Jacksonville Center
Sun 09:43:27 PM 31.7711 -81.5533 358° North 266 306 35,000  Level Jacksonville Center
Sun 09:44:27 PM 31.8442 -81.5572 357° North 261 300 35,000  Level Jacksonville Center
Sun 09:45:27 PM 31.9089 -81.5611 357° North 261 300 35,000  Level Jacksonville Center
Sun 09:46:27 PM 31.9883 -81.5650 358° North 255 293 35,000  Level Jacksonville Center
Sun 09:47:27 PM 32.0614 -81.5689 357° North 255 293 35,000  Level Jacksonville Center
Sun 09:48:27 PM 32.1242 -81.5728 357° North 255 293 35,000  Level Jacksonville Center
Sun 09:49:27 PM 32.2056 -81.5789 356° North 255 293 35,000  Level Jacksonville Center
Sun 09:50:27 PM 32.2703 -81.5806 359° North 255 293 35,000  Level Jacksonville Center
Sun 09:51:27 PM 32.3519 -81.5867 356° North 255 293 35,000  Level Jacksonville Center
Sun 09:52:27 PM 32.4250 -81.5906 357° North 255 293 35,000  Level Jacksonville Center
Sun 09:53:27 PM 32.4917 -81.5922 359° North 255 293 35,000  Level Jacksonville Center
Sun 09:54:27 PM 32.5711 -81.5983 356° North 255 293 35,000  Level Jacksonville Center
Sun 09:55:27 PM 32.6422 -81.6022 357° North 255 293 35,000  Level Jacksonville Center
Sun 09:56:27 PM 32.7175 -81.6061 358° North 255 293 35,000  Level Jacksonville Center
Sun 09:57:27 PM 32.7906 -81.6100 357° North 255 293 35,000  Level Jacksonville Center
Sun 09:58:27 PM 32.8614 -81.6139 357° North 255 293 35,000  Level Jacksonville Center
Sun 09:59:27 PM 32.9347 -81.6203 356° North 255 293 35,000  Level Jacksonville Center
Sun 10:00:27 PM 33.0078 -81.6217 359° North 255 293 35,000  Level Jacksonville Center
Sun 10:01:27 PM 33.0808 -81.6283 356° North 260 299 35,000  Level Jacksonville Center
Sun 10:02:27 PM 33.1539 -81.6322 357° North 260 299 35,000  Level Jacksonville Center
Sun 10:03:27 PM 33.2269 -81.6361 357° North 255 293 35,000  Level Jacksonville Center
Sun 10:04:27 PM 33.2917 -81.6378 359° North 255 293 35,000  Level Jacksonville Center
Sun 10:05:27 PM 33.3606 -81.6442 356° North 255 293 35,000  Level Jacksonville Center
Sun 10:06:27 PM 33.4339 -81.6481 357° North 255 293 35,000  Level Jacksonville Center
Sun 10:07:27 PM 33.5069 -81.6494 359° North 255 293 35,000  Level Jacksonville Center
Sun 10:08:27 PM 33.5778 -81.6536 357° North 255 293 35,000  Level Jacksonville Center
Sun 10:09:22 PM 33.6481 -81.6581 357° North 256 295 35,000  Level Atlanta Center
Sun 10:10:22 PM 33.7192 -81.6636 356° North 256 295 35,000  Level Atlanta Center
Sun 10:11:22 PM 33.7858 -81.6669 358° North 250 288 35,000  Level Atlanta Center
Sun 10:12:22 PM 33.8550 -81.6700 358° North 250 288 35,000  Level Atlanta Center
Sun 10:13:22 PM 33.9175 -81.6758 356° North 250 288 35,000  Level Atlanta Center
Sun 10:14:22 PM 33.9886 -81.6786 358° North 250 288 35,000  Level Atlanta Center
Sun 10:15:22 PM 34.0597 -81.6844 356° North 256 295 35,000  Level Atlanta Center
Sun 10:16:22 PM 34.1286 -81.6875 358° North 256 295 35,000  Level Atlanta Center
Sun 10:17:22 PM 34.1997 -81.6906 358° North 256 295 35,000  Level Atlanta Center
Sun 10:18:22 PM 34.2728 -81.6986 355° North 256 295 35,000  Level Atlanta Center
Sun 10:19:22 PM 34.3439 -81.7017 358° North 256 295 35,000  Level Atlanta Center
Sun 10:20:22 PM 34.4150 -81.7047 358° North 256 295 35,000  Level Atlanta Center
Sun 10:21:22 PM 34.4858 -81.7103 356° North 256 295 35,000  Level Atlanta Center
Sun 10:22:22 PM 34.5569 -81.7158 356° North 256 295 35,000  Level Atlanta Center
Sun 10:23:22 PM 34.6281 -81.7189 358° North 256 295 35,000  Level Atlanta Center
Sun 10:24:22 PM 34.7117 -81.7242 357° North 256 295 35,000  Level Atlanta Center
Sun 10:25:22 PM 34.7806 -81.7272 358° North 256 295 35,000  Level Atlanta Center
Sun 10:26:22 PM 34.8517 -81.7356 355° North 256 295 35,000  Level Atlanta Center
Sun 10:27:22 PM 34.9225 -81.7386 358° North 256 295 35,000  Level Atlanta Center
Sun 10:28:22 PM 34.9936 -81.7467 355° North 256 295 35,000  Level Atlanta Center
Sun 10:29:22 PM 35.0647 -81.7472 360° North 251 289 35,000  Level Atlanta Center
Sun 10:30:22 PM 35.1356 -81.7506 358° North 256 295 35,000  Level Atlanta Center
Sun 10:31:22 PM 35.2067 -81.7561 356° North 256 295 35,000  Level Atlanta Center
Sun 10:32:22 PM 35.2756 -81.7592 358° North 256 295 35,000  Level Atlanta Center
Sun 10:33:22 PM 35.3508 -81.7647 357° North 256 295 35,000  Level Atlanta Center
Sun 10:34:22 PM 35.4219 -81.7681 358° North 256 295 35,000  Level Atlanta Center
Sun 10:35:22 PM 35.4950 -81.7711 358° North 256 295 35,000  Level Atlanta Center
Sun 10:36:22 PM 35.5681 -81.7767 356° North 256 295 35,000  Level Atlanta Center
Sun 10:37:22 PM 35.6411 -81.7797 358° North 256 295 35,000  Level Atlanta Center
Sun 10:38:22 PM 35.7100 -81.7856 356° North 256 295 35,000  Level Atlanta Center
Sun 10:39:22 PM 35.7833 -81.7911 356° North 261 300 35,000  Level Atlanta Center
Sun 10:40:22 PM 35.8583 -81.7942 358° North 261 300 35,000  Level Atlanta Center
Sun 10:41:22 PM 35.9356 -81.7997 357° North 266 306 35,000  Level Atlanta Center
Sun 10:42:22 PM 36.0108 -81.8028 358° North 273 314 35,000  Level Atlanta Center
Sun 10:43:22 PM 36.0861 -81.8086 356° North 273 314 35,000  Level Atlanta Center
Sun 10:44:22 PM 36.1611 -81.8142 357° North 273 314 35,000  Level Atlanta Center
Sun 10:45:22 PM 36.2425 -81.8172 358° North 273 314 35,000  Level Atlanta Center
Sun 10:46:22 PM 36.3197 -81.8228 357° North 278 320 35,000  Level Atlanta Center
Sun 10:47:22 PM 36.3992 -81.8283 357° North 278 320 35,000  Level Atlanta Center
Sun 10:48:22 PM 36.4764 -81.8311 358° North 278 320 35,000  Level Atlanta Center
Sun 10:49:22 PM 36.5619 -81.8392 356° North 278 320 35,000  Level Atlanta Center
Sun 10:50:22 PM 36.6414 -81.8422 358° North 272 313 35,000  Level Atlanta Center
Sun 10:52:42 PM 36.8175 -81.8536 357° North 278 320 35,000  Level Indianapolis Center
Sun 10:53:43 PM 36.8942 -81.8581 357° North 277 319 35,000  Level Indianapolis Center
Sun 10:54:44 PM 36.9686 -81.8622 357° North 273 314 35,000  Level Indianapolis Center
Sun 10:55:45 PM 37.0436 -81.8675 357° North 273 314 35,000  Level Indianapolis Center
Sun 10:56:45 PM 37.1181 -81.8725 357° North 272 313 35,000  Level Indianapolis Center
Sun 10:57:46 PM 37.1925 -81.8778 357° North 272 313 35,000  Level Indianapolis Center
Sun 10:58:47 PM 37.2675 -81.8822 357° North 271 312 35,000  Level Indianapolis Center
Sun 10:59:48 PM 37.3422 -81.8881 356° North 271 312 35,000  Level Indianapolis Center
Sun 11:00:49 PM 37.4178 -81.8919 358° North 271 312 35,000  Level Indianapolis Center
Sun 11:01:49 PM 37.4936 -81.8981 356° North 271 312 35,000  Level Indianapolis Center
Sun 11:02:50 PM 37.5825 -81.9042 357° North 271 312 35,000  Level Indianapolis Center
Sun 11:03:51 PM 37.6592 -81.9097 357° North 272 313 35,000  Level Indianapolis Center
Sun 11:04:51 PM 37.7347 -81.9142 357° North 272 313 35,000  Level Indianapolis Center
Sun 11:05:52 PM 37.8119 -81.9189 357° North 273 314 35,000  Level Indianapolis Center
Sun 11:06:53 PM 37.8869 -81.9236 357° North 273 314 35,000  Level Indianapolis Center
Sun 11:07:54 PM 37.9636 -81.9272 358° North 273 314 35,000  Level Indianapolis Center
Sun 11:08:54 PM 38.0403 -81.9333 356° North 273 314 35,000  Level Indianapolis Center
Sun 11:09:55 PM 38.1172 -81.9375 358° North 274 315 35,000 -197 Level Indianapolis Center
Sun 11:10:56 PM 38.1961 -81.9419 357° North 278 320 34,600 -397 Descending Indianapolis Center
Sun 11:11:56 PM 38.2789 -81.9469 357° North 291 335 34,200 -298 Descending Indianapolis Center
Sun 11:12:57 PM 38.3650 -81.9522 357° North 302 348 34,000 -98 Descending Indianapolis Center
Sun 11:13:58 PM 38.4481 -81.9578 357° North 302 348 34,000  Level Indianapolis Center
Sun 11:14:58 PM 38.5306 -81.9642 357° North 299 344 34,000  Level Indianapolis Center
Sun 11:15:59 PM 38.6131 -81.9692 357° North 298 343 34,000  Level Indianapolis Center
Sun 11:17:00 PM 38.6947 -81.9742 357° North 295 339 34,000  Level Indianapolis Center
Sun 11:18:00 PM 38.7758 -81.9797 357° North 292 336 34,000  Level Indianapolis Center
Sun 11:19:01 PM 38.8561 -81.9844 357° North 291 335 34,000  Level Indianapolis Center
Sun 11:20:02 PM 38.9386 -81.9911 356° North 292 336 34,000  Level Indianapolis Center
Sun 11:21:02 PM 39.0197 -81.9972 357° North 292 336 34,000  Level Indianapolis Center
Sun 11:22:03 PM 39.1006 -82.0031 357° North 291 335 34,000  Level Indianapolis Center
Sun 11:23:04 PM 39.1811 -82.0086 357° North 291 335 34,000  Level Indianapolis Center
Sun 11:24:04 PM 39.2619 -82.0139 357° North 291 335 34,000  Level Indianapolis Center
Sun 11:25:05 PM 39.3422 -82.0200 357° North 291 335 34,000  Level Indianapolis Center
Sun 11:26:05 PM 39.4233 -82.0261 357° North 291 335 34,000  Level Indianapolis Center
Sun 11:27:06 PM 39.5047 -82.0314 357° North 291 335 34,000  Level Indianapolis Center
Sun 11:28:07 PM 39.5850 -82.0364 357° North 291 335 34,000  Level Indianapolis Center
Sun 11:29:07 PM 39.6650 -82.0419 357° North 290 334 34,000  Level Indianapolis Center
Sun 11:30:08 PM 39.7528 -82.0492 356° North 289 333 34,000  Level Indianapolis Center
Sun 11:31:09 PM 39.8331 -82.0542 357° North 289 333 34,000  Level Indianapolis Center
Sun 11:32:09 PM 39.9133 -82.0589 357° North 289 333 34,000  Level Indianapolis Center
Sun 11:33:10 PM 39.9933 -82.0650 357° North 289 333 34,000 -248 Level Indianapolis Center
Sun 11:34:10 PM 40.0739 -82.0714 357° North 289 333 33,500 -545 Descending Indianapolis Center
Sun 11:35:11 PM 40.1583 -82.0758 358° North 298 343 32,900 -545 Descending Indianapolis Center
Sun 11:36:11 PM 40.2431 -82.0819 357° North 302 348 32,400 -496 Descending Indianapolis Center
Sun 11:37:12 PM 40.3269 -82.0878 357° North 303 349 31,900 -496 Descending Indianapolis Center
Sun 11:38:12 PM 40.4106 -82.0939 357° North 302 348 31,400 -496 Descending Indianapolis Center
Sun 11:39:13 PM 40.4950 -82.1003 357° North 302 348 30,900 -492 Descending Indianapolis Center
Sun 11:40:14 PM 40.5769 -82.1067 357° North 301 346 30,400 -500 Descending Indianapolis Center
Sun 11:41:01 PM 40.6431 -82.1164 354° North 301 346 30,000 -336 Descending Cleveland Center
Sun 11:42:01 PM 40.7161 -82.1403 346° North 276 318 29,800 -397 Descending Cleveland Center
Sun 11:43:02 PM 40.7886 -82.1522 353° North 267 307 29,200 -595 Descending Cleveland Center
Sun 11:44:02 PM 40.8728 -82.1678 352° North 257 296 28,600 -694 Descending Cleveland Center
Sun 11:45:03 PM 40.9403 -82.1797 352° North 246 283 27,800 -893 Descending Cleveland Center
Sun 11:46:03 PM 41.0058 -82.1872 355° North 243 280 26,800 -1,041 Descending Cleveland Center
Sun 11:47:04 PM 41.0672 -82.1992 352° North 226 260 25,700 -1,289 Descending Cleveland Center
Sun 11:48:04 PM 41.1236 -82.2111 351° North 215 247 24,200 -1,488 Descending Cleveland Center
Sun 11:49:05 PM 41.1825 -82.2206 353° North 215 247 22,700 -1,438 Descending Cleveland Center
Sun 11:50:05 PM 41.2389 -82.2342 350° North 208 239 21,300 -1,140 Descending Cleveland Center
Sun 11:51:06 PM 41.2936 -82.2444 352° North 204 235 20,400 -942 Descending Cleveland Center
Sun 11:52:06 PM 41.3469 -82.2581 349° North 199 229 19,400 -1,000 Descending Cleveland Center
Sun 11:53:06 PM 41.4003 -82.2781 344° North 199 229 18,400 -793 Descending Cleveland Center
Sun 11:54:07 PM 41.4561 -82.2936 348° North 201 231 17,800 -793 Descending Cleveland Center
Sun 11:55:07 PM 41.5122 -82.3147 344° North 207 238 16,800 -1,077 Descending Cleveland Center
Sun 11:55:25 PM 41.5333 -82.3256 339° North 207 238 16,400 -984 Descending Cleveland Center
Sun 11:56:08 PM 41.5686 -82.3375 346° North 212 244 15,800 -1,075 Descending Cleveland Center
Sun 11:56:32 PM 41.5983 -82.3503 342° North 214 246 15,200 -1,100 Descending Cleveland Center
Sun 11:57:08 PM 41.6269 -82.3594 347° North 216 249 14,700 -1,000 Descending Cleveland Center
Sun 11:57:32 PM 41.6553 -82.3767 336° Northwest 218 251 14,200 -1,000 Descending Cleveland Center
Sun 11:58:08 PM 41.6828 -82.3886 342° North 216 249 13,700 -984 Descending Cleveland Center
Sun 11:58:33 PM 41.7142 -82.4036 340° North 220 253 13,200 -984 Descending Cleveland Center
Sun 11:59:09 PM 41.7414 -82.4139 344° North 218 251 12,700 -984 Descending Cleveland Center
Sun 11:59:34 PM 41.7706 -82.4331 334° Northwest 222 255 12,200 -1,000 Descending Cleveland Center
Mon 12:00:09 AM 41.7986 -82.4453 342° North 220 253 11,700 -1,000 Descending Cleveland Center
Mon 12:00:34 AM 41.8272 -82.4625 336° Northwest 220 253 11,200 -984 Descending Cleveland Center
Mon 12:01:10 AM 41.8547 -82.4717 346° North 220 253 10,700 -1,082 Descending Cleveland Center
Mon 12:01:35 AM 41.8883 -82.4872 341° North 214 246 10,100 -1,000 Descending Cleveland Center
Mon 12:02:10 AM 41.9114 -82.4961 344° North 219 252 9,700 -984 Descending Cleveland Center
Mon 12:02:36 AM 41.9428 -82.5136 337° Northwest 207 238 9,100 -1,000 Descending Cleveland Center
Mon 12:03:10 AM 41.9650 -82.5219 344° North 214 246 8,700 -1,000 Descending Cleveland Center
Mon 12:03:36 AM 41.9953 -82.5400 336° Northwest 203 234 8,100 -984 Descending Cleveland Center
Mon 12:04:11 AM 42.0172 -82.5483 344° North 208 239 7,700 -984 Descending Cleveland Center
Mon 12:04:37 AM 42.0481 -82.5664 336° Northwest 200 230 7,100 -1,200 Descending Cleveland Center
Mon 12:05:11 AM 42.0794 -82.5797 343° North 205 236 6,500 -1,100 Descending Cleveland Center
Mon 12:05:37 AM 42.1003 -82.5956 331° Northwest 200 230 6,000 -984 Descending Cleveland Center
Mon 12:06:12 AM 42.1308 -82.6097 341° North 205 236 5,500 -984 Descending Cleveland Center
Mon 12:06:38 AM 42.1528 -82.6247 333° Northwest 205 236 5,000 -1,000 Descending Cleveland Center
Mon 12:07:12 AM 42.1831 -82.6386 341° North 205 236 4,500 -984 Descending Cleveland Center
Mon 12:07:39 AM 42.2069 -82.6544 334° Northwest 206 237 4,000 -1,000 Descending Cleveland Center
Mon 12:08:12 AM 42.2353 -82.6681 340° North 205 236 3,500 -900 Descending Cleveland Center
Mon 12:08:39 AM 42.2614 -82.6842 335° Northwest 202 232 3,100 -492 Descending Cleveland Center
Mon 12:09:13 AM 42.2867 -82.6964 340° North 204 235 3,000 -98 Descending Cleveland Center
Mon 12:09:40 AM 42.3097 -82.7100 336° Northwest 187 215 3,000  Level Cleveland Center
Mon 12:10:13 AM 42.3308 -82.7261 331° Northwest 193 222 3,000  Level Cleveland Center
Mon 12:10:40 AM 42.3444 -82.7514 306° West 167 192 3,000 -100 Level Cleveland Center
Mon 12:11:13 AM 42.3475 -82.7781 279° West 176 203 2,900  Descending Cleveland Center
Mon 12:11:41 AM 42.3342 -82.8064 238° Southwest 172 198 3,000 -197 Climbing Cleveland Center
Mon 12:12:14 AM 42.3272 -82.8314 249° West 167 192 2,700 -689 Descending Cleveland Center
Mon 12:12:42 AM 42.3181 -82.8550 242° Southwest 128 147 2,300 -800 Descending Cleveland Center
Mon 12:13:14 AM 42.3108 -82.8753 244° Southwest 146 168 1,900 -800 Descending Cleveland Center
Mon 12:13:42 AM 42.3025 -82.8981 244° Southwest 128 147 1,500 -689 Descending Cleveland Center
Mon 12:14:15 AM 42.2942 -82.9178 240° Southwest 135 155 1,200 -323 Descending Cleveland Center
Mon 12:15:15 AM 42.2781 -82.9608 243° Southwest 134 154 1,000 -200 Descending Cleveland Center

Login

Don't have an account? Register now (free) for customized features, flight alerts, and more!